Time;durP1;ratioP1;P1;durP2;ratioP2;P2;SDS_P1;SDS_P2;PMS_P1;PMS_P2;Temp;Humidity;BMP_temperature;BMP_pressure;BME280_temperature;BME280_humidity;BME280_pressure;Samples;Min_cycle;Max_cycle;Signal;HPM_P1;HPM_P2
2023/05/01 00:01:23;;;;;;;11.25;5.32;;;;;;;;;;5069494;28;20028;-72
2023/05/01 00:03:50;;;;;;;7.28;5.15;;;;;;;;;;5077200;28;20025;-67
2023/05/01 00:06:17;;;;;;;11.18;7.18;;;;;;;;;;5080715;22;20132;-71
2023/05/01 00:08:43;;;;;;;13.38;9.40;;;;;;;;;;5033526;28;20049;-71
2023/05/01 00:11:11;;;;;;;118.40;80.70;;;;;;;;;;5033643;28;20028;-71
2023/05/01 00:13:38;;;;;;;26.63;20.20;;;;;;;;;;5033479;28;20045;-70
2023/05/01 00:16:09;;;;;;;8.18;7.30;;;;;;;;;;5033197;28;20531;-71
2023/05/01 00:18:36;;;;;;;9.02;6.60;;;;;;;;;;5033620;28;20022;-69
2023/05/01 00:21:03;;;;;;;10.43;6.63;;;;;;;;;;5033426;28;20438;-72
2023/05/01 00:23:29;;;;;;;10.00;5.53;;;;;;;;;;5033306;28;20040;-71
2023/05/01 00:25:56;;;;;;;40.17;26.65;;;;;;;;;;5033515;28;20021;-68
2023/05/01 00:28:22;;;;;;;100.85;70.18;;;;;;;;;;5033351;28;20029;-68
2023/05/01 00:30:49;;;;;;;32.38;20.38;;;;;;;;;;5033222;28;20036;-70
2023/05/01 00:33:16;;;;;;;16.80;13.55;;;;;;;;;;5033292;28;20488;-70
2023/05/01 00:35:44;;;;;;;13.63;11.32;;;;;;;;;;5033235;28;20021;-70
2023/05/01 00:38:11;;;;;;;10.70;9.30;;;;;;;;;;5033300;28;20033;-70
2023/05/01 00:40:47;;;;;;;11.55;10.35;;;;;;;;;;5033234;28;20030;-71
2023/05/01 00:43:13;;;;;;;13.65;12.25;;;;;;;;;;5027781;28;20026;-71
2023/05/01 00:45:43;;;;;;;11.43;10.23;;;;;;;;;;5002603;28;20422;-71
2023/05/01 00:48:10;;;;;;;13.50;9.88;;;;;;;;;;5001736;28;20028;-72
2023/05/01 00:50:36;;;;;;;13.45;10.25;;;;;;;;;;5003227;28;20093;-71
2023/05/01 00:53:03;;;;;;;12.07;10.20;;;;;;;;;;5003004;28;20019;-70
2023/05/01 00:55:31;;;;;;;14.70;10.73;;;;;;;;;;5001595;28;20383;-70
2023/05/01 00:57:58;;;;;;;13.80;10.02;;;;;;;;;;5003036;28;20053;-73
2023/05/01 01:00:24;;;;;;;12.80;11.18;;;;;;;;;;5001843;28;20038;-70
2023/05/01 01:02:51;;;;;;;11.75;9.98;;;;;;;;;;5002053;28;20027;-71
2023/05/01 01:05:18;;;;;;;14.35;9.65;;;;;;;;;;5001760;28;20022;-69
2023/05/01 01:07:54;;;;;;;11.40;9.85;;;;;;;;;;5008578;28;20042;-71
2023/05/01 01:10:36;;;;;;;12.63;10.00;;;;;;;;;;5013170;28;20147;-71
2023/05/01 01:13:03;;;;;;;;;;;;;;;;;;5013168;28;20018;-72
2023/05/01 01:15:44;;;;;;;11.85;7.18;;;;;;;;;;5012825;28;20376;-72
2023/05/01 01:18:11;;;;;;;8.30;6.57;;;;;;;;;;5012597;28;20037;-72
2023/05/01 01:20:38;;;;;;;8.98;7.30;;;;;;;;;;5012850;28;20022;-71
2023/05/01 01:23:17;;;;;;;13.25;11.18;;;;;;;;;;5012623;28;20022;-71
2023/05/01 01:26:03;;;;;;;21.70;15.90;;;;;;;;;;5012423;28;20041;-72
2023/05/01 01:28:51;;;;;;;22.75;18.75;;;;;;;;;;5012609;28;20037;-72
2023/05/01 01:31:18;;;;;;;19.88;17.70;;;;;;;;;;5012651;28;20490;-73
2023/05/01 01:34:05;;;;;;;23.98;18.95;;;;;;;;;;5012709;28;20030;-72
2023/05/01 01:36:33;;;;;;;25.65;18.20;;;;;;;;;;5012834;28;20440;-71
2023/05/01 01:39:09;;;;;;;99.72;65.00;;;;;;;;;;5012652;28;20038;-75
2023/05/01 01:41:36;;;;;;;129.45;95.97;;;;;;;;;;5012583;28;20049;-70
2023/05/01 01:44:06;;;;;;;78.43;51.88;;;;;;;;;;5012545;28;20018;-71
2023/05/01 01:46:35;;;;;;;18.75;14.85;;;;;;;;;;5012227;28;20033;-70
2023/05/01 01:49:04;;;;;;;16.95;13.82;;;;;;;;;;5012144;28;20061;-70
2023/05/01 01:51:31;;;;;;;16.45;12.52;;;;;;;;;;5012650;28;20034;-72
2023/05/01 01:54:00;;;;;;;16.27;14.50;;;;;;;;;;5012242;28;20033;-72
2023/05/01 01:56:29;;;;;;;20.17;15.90;;;;;;;;;;5012343;28;20050;-73
2023/05/01 01:58:56;;;;;;;18.45;16.15;;;;;;;;;;5012167;28;20127;-74
2023/05/01 02:01:24;;;;;;;22.27;17.45;;;;;;;;;;5012008;28;20026;-70
2023/05/01 02:03:51;;;;;;;21.00;17.98;;;;;;;;;;5011957;28;20037;-72
2023/05/01 02:06:19;;;;;;;21.20;17.20;;;;;;;;;;5011938;28;20045;-70
2023/05/01 02:08:46;;;;;;;23.77;19.50;;;;;;;;;;5011958;28;20061;-71
2023/05/01 02:11:15;;;;;;;15.00;13.38;;;;;;;;;;5012155;28;20025;-71
2023/05/01 02:13:42;;;;;;;15.30;11.32;;;;;;;;;;5012179;28;20034;-70
2023/05/01 02:16:09;;;;;;;12.75;9.10;;;;;;;;;;5011640;28;20022;-70
2023/05/01 02:18:36;;;;;;;10.23;8.00;;;;;;;;;;5011809;28;20040;-71
2023/05/01 02:21:03;;;;;;;7.72;5.72;;;;;;;;;;5011775;28;20025;-70
2023/05/01 02:23:30;;;;;;;9.63;7.25;;;;;;;;;;5011656;28;20030;-68
2023/05/01 02:26:00;;;;;;;9.50;7.32;;;;;;;;;;5011693;28;20033;-71
2023/05/01 02:28:27;;;;;;;13.35;9.48;;;;;;;;;;5011723;28;20109;-71
2023/05/01 02:30:54;;;;;;;16.38;11.10;;;;;;;;;;5012118;28;20510;-70
2023/05/01 02:33:20;;;;;;;11.05;6.75;;;;;;;;;;5012027;28;20034;-71
2023/05/01 02:35:47;;;;;;;9.55;5.85;;;;;;;;;;5011988;28;20028;-71
2023/05/01 02:38:15;;;;;;;7.90;5.88;;;;;;;;;;5011562;28;20382;-71
2023/05/01 02:40:44;;;;;;;7.75;5.43;;;;;;;;;;5011847;28;20036;-71
2023/05/01 02:43:12;;;;;;;8.52;5.20;;;;;;;;;;5011895;28;20500;-70
2023/05/01 02:45:40;;;;;;;8.32;5.85;;;;;;;;;;5011627;28;20033;-70
2023/05/01 02:48:07;;;;;;;9.95;6.18;;;;;;;;;;5011581;28;20026;-70
2023/05/01 02:50:35;;;;;;;12.52;6.32;;;;;;;;;;5011723;28;20014;-68
2023/05/01 02:53:02;;;;;;;130.15;105.05;;;;;;;;;;5004504;28;20034;-69
2023/05/01 02:55:29;;;;;;;111.40;89.10;;;;;;;;;;4991436;28;20148;-70
2023/05/01 02:57:58;;;;;;;47.60;37.22;;;;;;;;;;4992405;28;20384;-70
2023/05/01 03:00:27;;;;;;;132.60;105.82;;;;;;;;;;4991754;28;20079;-67
2023/05/01 03:02:54;;;;;;;25.15;19.05;;;;;;;;;;4994259;28;20026;-69
2023/05/01 03:05:21;;;;;;;17.77;14.18;;;;;;;;;;5005551;28;20105;-69
2023/05/01 03:07:47;;;;;;;13.98;9.60;;;;;;;;;;5006709;28;20055;-70
2023/05/01 03:10:14;;;;;;;12.00;8.68;;;;;;;;;;4993190;28;20022;-70
2023/05/01 03:12:41;;;;;;;11.65;9.63;;;;;;;;;;4991959;28;20465;-69
2023/05/01 03:15:08;;;;;;;11.70;10.45;;;;;;;;;;5004132;28;20049;-68
2023/05/01 03:17:34;;;;;;;93.72;63.72;;;;;;;;;;5011195;28;20026;-69
2023/05/01 03:20:01;;;;;;;193.55;129.20;;;;;;;;;;5011144;28;20026;-69
2023/05/01 03:22:31;;;;;;;28.23;19.92;;;;;;;;;;5010998;28;20026;-69
2023/05/01 03:24:58;;;;;;;13.27;10.23;;;;;;;;;;5011056;28;20022;-69
2023/05/01 03:27:25;;;;;;;11.82;9.95;;;;;;;;;;5010520;28;20459;-70
2023/05/01 03:29:52;;;;;;;15.80;11.23;;;;;;;;;;5010877;28;20030;-69
2023/05/01 03:32:18;;;;;;;14.02;11.55;;;;;;;;;;5011349;28;20495;-72
2023/05/01 03:34:45;;;;;;;17.25;12.15;;;;;;;;;;5011168;28;20029;-68
2023/05/01 03:37:11;;;;;;;19.75;12.95;;;;;;;;;;5010892;28;20068;-69
2023/05/01 03:39:38;;;;;;;17.17;12.60;;;;;;;;;;5010916;28;20026;-67
2023/05/01 03:42:05;;;;;;;15.70;11.55;;;;;;;;;;5010761;28;20038;-71
2023/05/01 03:44:32;;;;;;;12.50;10.52;;;;;;;;;;5010698;28;20022;-69
2023/05/01 03:46:58;;;;;;;17.08;12.02;;;;;;;;;;5010743;28;20109;-69
2023/05/01 03:49:25;;;;;;;15.57;12.10;;;;;;;;;;5010860;28;20037;-69
2023/05/01 03:51:52;;;;;;;13.43;11.60;;;;;;;;;;5010440;28;20051;-68
2023/05/01 03:54:18;;;;;;;17.98;12.63;;;;;;;;;;5009398;28;20050;-68
2023/05/01 03:56:45;;;;;;;12.20;10.90;;;;;;;;;;4999010;28;20421;-69
2023/05/01 03:59:13;;;;;;;11.93;10.48;;;;;;;;;;5000473;28;20031;-67
2023/05/01 04:01:39;;;;;;;13.13;10.65;;;;;;;;;;4998999;28;20437;-70
2023/05/01 04:04:06;;;;;;;14.80;10.35;;;;;;;;;;4999424;28;20071;-70
2023/05/01 04:06:33;;;;;;;14.07;11.32;;;;;;;;;;5000430;28;20059;-68
2023/05/01 04:09:00;;;;;;;15.15;10.18;;;;;;;;;;4998894;28;20027;-69
2023/05/01 04:11:27;;;;;;;13.60;9.20;;;;;;;;;;4999567;28;20048;-69
2023/05/01 04:13:53;;;;;;;9.48;8.15;;;;;;;;;;5000648;28;20416;-72
2023/05/01 04:16:20;;;;;;;10.70;8.75;;;;;;;;;;4989854;28;20625;-69
2023/05/01 04:18:47;;;;;;;11.02;8.30;;;;;;;;;;5000148;28;20368;-69
2023/05/01 04:21:16;;;;;;;17.05;11.77;;;;;;;;;;4991006;28;20027;-71
2023/05/01 04:23:43;;;;;;;16.92;12.85;;;;;;;;;;4990541;28;20034;-70
2023/05/01 04:26:09;;;;;;;15.40;11.15;;;;;;;;;;4990757;28;20105;-69
2023/05/01 04:28:36;;;;;;;20.77;14.70;;;;;;;;;;4990494;28;20031;-70
2023/05/01 04:31:03;;;;;;;14.20;10.85;;;;;;;;;;4990688;28;20053;-70
2023/05/01 04:33:29;;;;;;;11.63;8.73;;;;;;;;;;4990602;28;20097;-69
2023/05/01 04:35:56;;;;;;;11.00;7.53;;;;;;;;;;4990540;28;20062;-69
2023/05/01 04:38:23;;;;;;;8.25;6.50;;;;;;;;;;4991681;28;20065;-68
2023/05/01 04:40:51;;;;;;;9.98;8.00;;;;;;;;;;4993859;28;20030;-68
2023/05/01 04:43:17;;;;;;;45.38;40.85;;;;;;;;;;4993732;28;20026;-71
2023/05/01 04:45:44;;;;;;;102.90;89.95;;;;;;;;;;4993263;28;20097;-71
2023/05/01 04:48:11;;;;;;;36.80;31.23;;;;;;;;;;4993532;28;20029;-71
2023/05/01 04:50:37;;;;;;;10.98;7.95;;;;;;;;;;4993561;28;20027;-71
2023/05/01 04:53:04;;;;;;;19.67;16.85;;;;;;;;;;4993608;28;20376;-71
2023/05/01 04:55:31;;;;;;;8.52;5.38;;;;;;;;;;4999972;28;20086;-69
2023/05/01 04:57:57;;;;;;;7.25;4.78;;;;;;;;;;5011711;28;20026;-72
2023/05/01 05:00:25;;;;;;;7.88;4.80;;;;;;;;;;5008489;28;20056;-70
2023/05/01 05:02:51;;;;;;;7.35;5.50;;;;;;;;;;5013045;28;20026;-71
2023/05/01 05:05:18;;;;;;;7.82;5.50;;;;;;;;;;5009048;28;20368;-72
2023/05/01 05:07:45;;;;;;;8.13;5.28;;;;;;;;;;5001962;28;20050;-71
2023/05/01 05:10:12;;;;;;;4.95;4.00;;;;;;;;;;5002520;28;20375;-70
2023/05/01 05:12:38;;;;;;;6.53;3.90;;;;;;;;;;5002867;28;20144;-73
2023/05/01 05:15:05;;;;;;;5.65;4.05;;;;;;;;;;4998205;28;20026;-68
2023/05/01 05:17:32;;;;;;;8.30;3.50;;;;;;;;;;5001932;28;20022;-68
2023/05/01 05:19:58;;;;;;;7.15;4.28;;;;;;;;;;5000880;28;20091;-69
2023/05/01 05:22:25;;;;;;;7.55;3.90;;;;;;;;;;5002158;28;20111;-69
2023/05/01 05:24:54;;;;;;;6.97;3.95;;;;;;;;;;5001057;28;20040;-68
2023/05/01 05:27:21;;;;;;;6.95;3.28;;;;;;;;;;5001647;28;20034;-67
2023/05/01 05:29:47;;;;;;;5.70;3.75;;;;;;;;;;4998306;28;20030;-70
2023/05/01 05:32:14;;;;;;;4.50;3.15;;;;;;;;;;5002018;28;20440;-68
2023/05/01 05:34:41;;;;;;;7.35;4.32;;;;;;;;;;5001403;28;20084;-68
2023/05/01 05:37:08;;;;;;;4.85;3.55;;;;;;;;;;5002098;28;20022;-68
2023/05/01 05:39:34;;;;;;;3.50;2.97;;;;;;;;;;5001954;28;20455;-70
2023/05/01 05:42:02;;;;;;;6.10;3.45;;;;;;;;;;5009870;28;20025;-68
2023/05/01 05:44:30;;;;;;;5.13;3.40;;;;;;;;;;4995615;28;20396;-67
2023/05/01 05:46:57;;;;;;;5.65;3.60;;;;;;;;;;5011074;28;20061;-68
2023/05/01 05:49:23;;;;;;;3.30;2.92;;;;;;;;;;5001187;28;20018;-67
2023/05/01 05:51:50;;;;;;;5.40;3.47;;;;;;;;;;5036255;22;20143;-68
2023/05/01 05:54:17;;;;;;;5.57;3.40;;;;;;;;;;5108967;28;20106;-69
2023/05/01 05:56:43;;;;;;;4.15;3.10;;;;;;;;;;5111242;28;20031;-68
2023/05/01 05:59:10;;;;;;;5.97;3.35;;;;;;;;;;5114738;28;20168;-68
2023/05/01 06:01:38;;;;;;;4.75;3.83;;;;;;;;;;5114770;28;20023;-69
2023/05/01 06:04:06;;;;;;;3.42;3.10;;;;;;;;;;5115415;28;20024;-66
2023/05/01 06:06:33;;;;;;;6.15;4.13;;;;;;;;;;5115366;28;20028;-67
2023/05/01 06:09:03;;;;;;;4.32;3.47;;;;;;;;;;5110263;28;20583;-66
2023/05/01 06:11:29;;;;;;;6.93;3.50;;;;;;;;;;5115089;28;20392;-66
2023/05/01 06:13:57;;;;;;;4.97;3.70;;;;;;;;;;5115366;28;20047;-66
2023/05/01 06:16:24;;;;;;;4.65;3.85;;;;;;;;;;5115918;28;20065;-68
2023/05/01 06:18:51;;;;;;;5.38;3.65;;;;;;;;;;5109973;28;20032;-71
2023/05/01 06:21:18;;;;;;;4.63;3.92;;;;;;;;;;5102697;28;20064;-71
2023/05/01 06:23:44;;;;;;;5.15;3.88;;;;;;;;;;5105471;28;20023;-72
2023/05/01 06:26:11;;;;;;;4.15;3.60;;;;;;;;;;5113291;28;20102;-66
2023/05/01 06:28:38;;;;;;;4.88;4.00;;;;;;;;;;5104082;28;20020;-68
2023/05/01 06:31:07;;;;;;;8.25;4.50;;;;;;;;;;5103478;28;20462;-74
2023/05/01 06:33:34;;;;;;;7.78;3.67;;;;;;;;;;5102835;28;20012;-69
2023/05/01 06:36:01;;;;;;;4.45;3.50;;;;;;;;;;5103236;28;20028;-65
2023/05/01 06:38:27;;;;;;;4.65;3.90;;;;;;;;;;5104578;28;20038;-67
2023/05/01 06:40:54;;;;;;;4.80;3.75;;;;;;;;;;5102937;28;20105;-69
2023/05/01 06:43:21;;;;;;;4.63;3.67;;;;;;;;;;5101348;27;20052;-71
2023/05/01 06:45:48;;;;;;;6.90;4.03;;;;;;;;;;5096282;28;20042;-69
2023/05/01 06:48:15;;;;;;;6.47;3.83;;;;;;;;;;5096207;28;20024;-69
2023/05/01 06:50:41;;;;;;;5.30;4.10;;;;;;;;;;5097290;28;20091;-70
2023/05/01 06:53:08;;;;;;;6.60;4.28;;;;;;;;;;5097919;28;20449;-68
2023/05/01 06:55:34;;;;;;;10.98;9.45;;;;;;;;;;5100928;28;20020;-67
2023/05/01 06:58:02;;;;;;;5.05;4.22;;;;;;;;;;5107565;28;20448;-68
2023/05/01 07:00:28;;;;;;;5.57;4.47;;;;;;;;;;5107692;28;20027;-67
2023/05/01 07:02:55;;;;;;;5.13;3.88;;;;;;;;;;5107951;28;20069;-67
2023/05/01 07:05:21;;;;;;;4.57;3.92;;;;;;;;;;5109065;28;20015;-67
2023/05/01 07:07:48;;;;;;;6.43;4.53;;;;;;;;;;5107808;28;20407;-68
2023/05/01 07:10:15;;;;;;;6.85;4.35;;;;;;;;;;5108810;28;20099;-67
2023/05/01 07:12:41;;;;;;;4.25;3.85;;;;;;;;;;5109031;28;20020;-67
2023/05/01 07:15:08;;;;;;;11.65;7.38;;;;;;;;;;5107960;28;20023;-68
2023/05/01 07:17:35;;;;;;;7.47;4.40;;;;;;;;;;5098374;28;20146;-68
2023/05/01 07:20:03;;;;;;;5.35;4.65;;;;;;;;;;5093945;28;20056;-70
2023/05/01 07:22:30;;;;;;;4.15;3.75;;;;;;;;;;5097046;28;20093;-68
2023/05/01 07:24:57;;;;;;;4.45;4.00;;;;;;;;;;5097044;28;20016;-68
2023/05/01 07:27:23;;;;;;;7.22;4.25;;;;;;;;;;5096703;28;20043;-70
2023/05/01 07:29:50;;;;;;;5.35;4.18;;;;;;;;;;5097215;28;20024;-69
2023/05/01 07:32:17;;;;;;;6.63;4.65;;;;;;;;;;5097479;28;20012;-69
2023/05/01 07:34:43;;;;;;;6.20;4.70;;;;;;;;;;5102262;28;20032;-69
2023/05/01 07:37:10;;;;;;;7.57;5.18;;;;;;;;;;5101916;28;20020;-70
2023/05/01 07:39:37;;;;;;;6.60;4.00;;;;;;;;;;5101422;28;20044;-70
2023/05/01 07:42:03;;;;;;;6.25;5.00;;;;;;;;;;5103484;28;20042;-70
2023/05/01 07:44:30;;;;;;;8.77;5.80;;;;;;;;;;5105372;28;20017;-70
2023/05/01 07:47:03;;;;;;;7.68;6.05;;;;;;;;;;5102240;28;20051;-70
2023/05/01 07:49:29;;;;;;;9.40;7.28;;;;;;;;;;5103083;28;20019;-70
2023/05/01 07:51:56;;;;;;;8.57;6.90;;;;;;;;;;5100892;28;20072;-70
2023/05/01 07:54:23;;;;;;;10.40;7.82;;;;;;;;;;5102870;28;20017;-70
2023/05/01 07:56:50;;;;;;;13.20;8.13;;;;;;;;;;5099930;28;20008;-69
2023/05/01 07:59:16;;;;;;;12.05;8.05;;;;;;;;;;5102911;28;20034;-68
2023/05/01 08:01:43;;;;;;;9.73;8.25;;;;;;;;;;5104187;28;20058;-70
2023/05/01 08:04:10;;;;;;;13.27;8.68;;;;;;;;;;5099273;28;20492;-70
2023/05/01 08:06:36;;;;;;;10.88;8.73;;;;;;;;;;5102795;28;20035;-69
2023/05/01 08:09:03;;;;;;;10.80;9.20;;;;;;;;;;5104043;28;20093;-70
2023/05/01 08:11:30;;;;;;;11.13;9.63;;;;;;;;;;5101272;28;20022;-69
2023/05/01 08:13:57;;;;;;;14.27;10.27;;;;;;;;;;5104982;28;20016;-69
2023/05/01 08:16:23;;;;;;;12.07;10.10;;;;;;;;;;5105490;28;20077;-70
2023/05/01 08:18:50;;;;;;;17.55;14.07;;;;;;;;;;5107775;28;20020;-69
2023/05/01 08:21:17;;;;;;;13.85;11.45;;;;;;;;;;5106975;28;20114;-70
2023/05/01 08:23:43;;;;;;;17.48;11.48;;;;;;;;;;5105939;28;20076;-71
2023/05/01 08:26:10;;;;;;;15.68;12.18;;;;;;;;;;5107681;28;20473;-69
2023/05/01 08:28:37;;;;;;;17.60;12.57;;;;;;;;;;5106803;28;20024;-69
2023/05/01 08:31:03;;;;;;;27.27;19.45;;;;;;;;;;5105756;28;20030;-69
2023/05/01 08:33:30;;;;;;;14.50;10.38;;;;;;;;;;5103769;28;20024;-69
2023/05/01 08:35:56;;;;;;;18.15;13.73;;;;;;;;;;5100488;28;20016;-70
2023/05/01 08:38:23;;;;;;;15.70;10.60;;;;;;;;;;5097405;28;20016;-70
2023/05/01 08:40:53;;;;;;;13.73;9.15;;;;;;;;;;5096904;28;20446;-69
2023/05/01 08:43:20;;;;;;;15.50;8.95;;;;;;;;;;5096396;28;20056;-72
2023/05/01 08:45:47;;;;;;;10.93;8.45;;;;;;;;;;5096756;28;20028;-70
2023/05/01 08:48:17;;;;;;;13.75;8.75;;;;;;;;;;5096654;28;20020;-70
2023/05/01 08:50:45;;;;;;;11.90;8.10;;;;;;;;;;5096378;28;20456;-69
2023/05/01 08:53:13;;;;;;;10.57;8.65;;;;;;;;;;5096439;28;20040;-67
2023/05/01 08:55:40;;;;;;;10.40;7.63;;;;;;;;;;5096429;28;20016;-69
2023/05/01 08:58:07;;;;;;;11.82;8.35;;;;;;;;;;5096318;28;20099;-69
2023/05/01 09:00:35;;;;;;;11.38;9.25;;;;;;;;;;5096341;28;20023;-70
2023/05/01 09:03:04;;;;;;;13.55;9.63;;;;;;;;;;5096203;28;20023;-69
2023/05/01 09:05:31;;;;;;;18.45;9.40;;;;;;;;;;5096171;28;20024;-68
2023/05/01 09:07:58;;;;;;;14.60;8.90;;;;;;;;;;5092850;28;20092;-70
2023/05/01 09:10:26;;;;;;;11.32;8.65;;;;;;;;;;5086518;28;20020;-69
2023/05/01 09:12:56;;;;;;;13.98;8.23;;;;;;;;;;5075813;28;20355;-69
2023/05/01 09:15:24;;;;;;;12.07;8.45;;;;;;;;;;5082116;28;20028;-68
2023/05/01 09:17:51;;;;;;;11.07;8.98;;;;;;;;;;5096099;28;20020;-68
2023/05/01 09:20:18;;;;;;;8.93;7.43;;;;;;;;;;5095933;28;20020;-68
2023/05/01 09:22:45;;;;;;;10.55;7.78;;;;;;;;;;5096172;28;20016;-66
2023/05/01 09:25:12;;;;;;;12.07;7.60;;;;;;;;;;5091657;28;20062;-69
2023/05/01 09:27:38;;;;;;;13.57;8.27;;;;;;;;;;5096116;28;20024;-68
2023/05/01 09:30:06;;;;;;;13.27;8.43;;;;;;;;;;5094360;28;20024;-67
2023/05/01 09:32:33;;;;;;;10.20;7.63;;;;;;;;;;5095748;28;20081;-71
2023/05/01 09:35:11;;;;;;;13.38;8.38;;;;;;;;;;5095680;28;20046;-68
2023/05/01 09:37:38;;;;;;;9.90;8.02;;;;;;;;;;5094907;28;20388;-67
2023/05/01 09:40:07;;;;;;;11.18;8.40;;;;;;;;;;5093016;28;20032;-68
2023/05/01 09:42:35;;;;;;;12.57;7.55;;;;;;;;;;5095543;28;20081;-68
2023/05/01 09:45:03;;;;;;;18.23;9.10;;;;;;;;;;5095201;28;20052;-68
2023/05/01 09:47:30;;;;;;;12.93;8.23;;;;;;;;;;5095585;28;20410;-68
2023/05/01 09:49:58;;;;;;;13.20;8.48;;;;;;;;;;5099971;28;20403;-67
2023/05/01 09:52:27;;;;;;;17.05;9.65;;;;;;;;;;5099410;28;20503;-67
2023/05/01 09:55:13;;;;;;;16.38;9.55;;;;;;;;;;5095003;28;20032;-68
2023/05/01 09:57:41;;;;;;;12.20;9.27;;;;;;;;;;5079887;28;20027;-68
2023/05/01 10:00:09;;;;;;;12.77;9.25;;;;;;;;;;5088785;28;20524;-69
2023/05/01 10:02:35;;;;;;;39.15;29.90;;;;;;;;;;5100053;28;20031;-68
2023/05/01 10:05:02;;;;;;;24.63;17.77;;;;;;;;;;5103313;28;20024;-67
2023/05/01 10:07:30;;;;;;;46.15;32.42;;;;;;;;;;5097341;28;20481;-67
2023/05/01 10:09:57;;;;;;;52.08;34.58;;;;;;;;;;5084453;28;20115;-67
2023/05/01 10:12:24;;;;;;;55.67;38.25;;;;;;;;;;5085078;28;20024;-68
2023/05/01 10:14:52;;;;;;;64.80;49.90;;;;;;;;;;5094825;28;20028;-68
2023/05/01 10:17:19;;;;;;;56.83;42.63;;;;;;;;;;5094453;28;20036;-68
2023/05/01 10:19:46;;;;;;;55.03;37.85;;;;;;;;;;5091452;28;20048;-67
2023/05/01 10:22:13;;;;;;;47.60;32.92;;;;;;;;;;5091047;28;20020;-67
2023/05/01 10:24:40;;;;;;;34.72;24.35;;;;;;;;;;5082863;28;20550;-67
2023/05/01 10:27:07;;;;;;;36.08;22.27;;;;;;;;;;5080961;28;20304;-68
2023/05/01 10:29:35;;;;;;;33.67;22.10;;;;;;;;;;5088022;28;20024;-67
2023/05/01 10:32:03;;;;;;;37.05;20.98;;;;;;;;;;5076905;28;20179;-67
2023/05/01 10:34:31;;;;;;;33.75;21.67;;;;;;;;;;5086158;28;20023;-67
2023/05/01 10:37:02;;;;;;;38.67;24.20;;;;;;;;;;5080678;28;20016;-67
2023/05/01 10:39:31;;;;;;;40.65;23.60;;;;;;;;;;5088549;28;20023;-68
2023/05/01 10:41:57;;;;;;;49.42;29.85;;;;;;;;;;5100196;28;20027;-68
2023/05/01 10:44:25;;;;;;;54.65;34.13;;;;;;;;;;5095522;28;20588;-68
2023/05/01 10:46:52;;;;;;;60.10;38.03;;;;;;;;;;5095149;28;20400;-68
2023/05/01 10:49:20;;;;;;;67.47;46.85;;;;;;;;;;5097618;28;20666;-69
2023/05/01 10:51:57;;;;;;;83.75;52.85;;;;;;;;;;5086431;28;20016;-68
2023/05/01 10:54:25;;;;;;;56.50;43.25;;;;;;;;;;5097904;28;20091;-67
2023/05/01 10:56:53;;;;;;;93.78;75.57;;;;;;;;;;5096035;28;20094;-68
2023/05/01 10:59:20;;;;;;;65.03;49.95;;;;;;;;;;5099770;28;20027;-69
2023/05/01 11:01:50;;;;;;;63.45;46.42;;;;;;;;;;5097300;28;20024;-67
2023/05/01 11:04:20;;;;;;;57.78;39.95;;;;;;;;;;5089344;28;20020;-69
2023/05/01 11:07:07;;;;;;;93.95;57.28;;;;;;;;;;5098211;28;20388;-70
2023/05/01 11:09:36;;;;;;;31.58;20.30;;;;;;;;;;5094547;28;20389;-69
2023/05/01 11:12:03;;;;;;;28.77;19.48;;;;;;;;;;5095137;28;20488;-68
2023/05/01 11:14:50;;;;;;;25.75;16.20;;;;;;;;;;5090144;28;20210;-69
2023/05/01 11:17:36;;;;;;;24.52;18.58;;;;;;;;;;5091480;28;20098;-67
2023/05/01 11:20:03;;;;;;;39.00;21.40;;;;;;;;;;5098290;28;20110;-67
2023/05/01 11:22:30;;;;;;;29.13;19.77;;;;;;;;;;5094465;28;20474;-67
2023/05/01 11:24:57;;;;;;;31.63;19.10;;;;;;;;;;5093861;28;20157;-68
2023/05/01 11:27:24;;;;;;;38.13;23.33;;;;;;;;;;5101073;28;20126;-68
2023/05/01 11:29:50;;;;;;;74.00;53.78;;;;;;;;;;5107135;28;20030;-67
2023/05/01 11:32:18;;;;;;;130.77;102.28;;;;;;;;;;5101005;28;20068;-67
2023/05/01 11:34:46;;;;;;;85.45;61.75;;;;;;;;;;5102751;28;20090;-68
2023/05/01 11:37:13;;;;;;;76.03;49.80;;;;;;;;;;5100396;28;20448;-66
2023/05/01 11:39:46;;;;;;;67.75;41.50;;;;;;;;;;5097767;28;20035;-68
2023/05/01 11:42:13;;;;;;;76.57;51.15;;;;;;;;;;5097471;28;20015;-67
2023/05/01 11:44:39;;;;;;;57.67;33.65;;;;;;;;;;5101636;28;20357;-70
2023/05/01 11:47:07;;;;;;;70.43;48.58;;;;;;;;;;5099133;28;20027;-72
2023/05/01 11:49:34;;;;;;;44.72;28.58;;;;;;;;;;5124412;22;20048;-77
2023/05/01 11:52:01;;;;;;;36.95;23.90;;;;;;;;;;5107693;28;20173;-73
2023/05/01 11:54:28;;;;;;;33.92;23.10;;;;;;;;;;5109101;28;20027;-70
2023/05/01 11:57:03;;;;;;;37.03;21.45;;;;;;;;;;5109615;28;20044;-73
2023/05/01 11:59:30;;;;;;;33.75;20.92;;;;;;;;;;5106982;28;20072;-71
2023/05/01 12:01:57;;;;;;;36.58;22.52;;;;;;;;;;5113340;28;20095;-70
2023/05/01 12:04:26;;;;;;;34.45;25.63;;;;;;;;;;5113669;28;20545;-68
2023/05/01 12:06:53;;;;;;;75.93;52.45;;;;;;;;;;5106012;28;20110;-68
2023/05/01 12:09:22;;;;;;;91.22;69.68;;;;;;;;;;5106898;28;20019;-68
2023/05/01 12:11:50;;;;;;;73.18;54.42;;;;;;;;;;5107297;28;20073;-69
2023/05/01 12:14:17;;;;;;;61.15;43.28;;;;;;;;;;5109585;28;20020;-67
2023/05/01 12:16:45;;;;;;;53.58;40.05;;;;;;;;;;5106586;28;20737;-68
2023/05/01 12:19:14;;;;;;;61.05;41.17;;;;;;;;;;5106603;28;20388;-68
2023/05/01 12:21:41;;;;;;;60.25;44.75;;;;;;;;;;5107898;28;20111;-69
2023/05/01 12:24:10;;;;;;;61.60;45.67;;;;;;;;;;5105817;28;20027;-70
2023/05/01 12:26:37;;;;;;;74.90;59.40;;;;;;;;;;5109055;28;20073;-70
2023/05/01 12:29:07;;;;;;;59.00;42.03;;;;;;;;;;5106496;28;20063;-69
2023/05/01 12:31:35;;;;;;;54.58;38.53;;;;;;;;;;5109425;28;20036;-69
2023/05/01 12:34:02;;;;;;;47.83;31.85;;;;;;;;;;5108347;28;20055;-71
2023/05/01 12:36:30;;;;;;;52.97;35.92;;;;;;;;;;5113671;28;20227;-68
2023/05/01 12:38:59;;;;;;;56.80;36.15;;;;;;;;;;5100072;28;20040;-70
2023/05/01 12:41:46;;;;;;;65.40;39.88;;;;;;;;;;5094682;28;20032;-69
2023/05/01 12:44:21;;;;;;;61.70;42.63;;;;;;;;;;5093423;28;20544;-71
2023/05/01 12:46:54;;;;;;;63.10;40.60;;;;;;;;;;5092664;28;20031;-70
2023/05/01 12:49:21;;;;;;;62.13;39.55;;;;;;;;;;5092042;28;20437;-71
2023/05/01 12:51:49;;;;;;;59.05;40.05;;;;;;;;;;5094558;28;20035;-69
2023/05/01 12:54:28;;;;;;;63.10;39.92;;;;;;;;;;5094790;28;20020;-70
2023/05/01 12:57:04;;;;;;;68.03;42.33;;;;;;;;;;5094729;28;20029;-68
2023/05/01 12:59:31;;;;;;;64.57;40.55;;;;;;;;;;5092945;28;20020;-69
2023/05/01 13:01:59;;;;;;;63.67;41.15;;;;;;;;;;5094129;28;20500;-67
2023/05/01 13:04:26;;;;;;;101.00;74.70;;;;;;;;;;5094821;28;20035;-70
2023/05/01 13:06:55;;;;;;;75.13;54.05;;;;;;;;;;5079889;28;20039;-73
2023/05/01 13:09:23;;;;;;;72.93;49.20;;;;;;;;;;5090280;28;20181;-70
2023/05/01 13:12:04;;;;;;;71.97;46.20;;;;;;;;;;5081148;28;20076;-70
2023/05/01 13:14:40;;;;;;;92.68;58.25;;;;;;;;;;5095169;28;20037;-69
2023/05/01 13:17:08;;;;;;;66.25;44.97;;;;;;;;;;5094950;28;20110;-73
2023/05/01 13:19:35;;;;;;;55.72;36.38;;;;;;;;;;5093522;28;20508;-72
2023/05/01 13:22:01;;;;;;;51.20;33.40;;;;;;;;;;5094026;28;20040;-73
2023/05/01 13:24:37;;;;;;;96.35;72.22;;;;;;;;;;5094718;28;20024;-71
2023/05/01 13:27:05;;;;;;;54.95;37.88;;;;;;;;;;5094974;28;20431;-71
2023/05/01 13:29:32;;;;;;;40.72;28.38;;;;;;;;;;5093122;28;20031;-71
2023/05/01 13:31:59;;;;;;;66.70;48.00;;;;;;;;;;5093370;28;20114;-70
2023/05/01 13:34:29;;;;;;;58.83;43.35;;;;;;;;;;5094610;28;20522;-70
2023/05/01 13:36:56;;;;;;;43.90;32.08;;;;;;;;;;5094674;28;20112;-69
2023/05/01 13:39:23;;;;;;;36.83;25.77;;;;;;;;;;5094173;28;20085;-71
2023/05/01 13:41:50;;;;;;;40.78;28.45;;;;;;;;;;5094501;28;20469;-70
2023/05/01 13:44:17;;;;;;;49.97;32.83;;;;;;;;;;5094465;28;20511;-72
2023/05/01 13:46:44;;;;;;;58.53;37.03;;;;;;;;;;5093313;28;20123;-70
2023/05/01 13:49:11;;;;;;;52.15;37.40;;;;;;;;;;5093680;28;20056;-71
2023/05/01 13:51:41;;;;;;;44.42;31.80;;;;;;;;;;5091682;28;20358;-69
2023/05/01 13:54:09;;;;;;;69.57;51.60;;;;;;;;;;5091781;28;20035;-69
2023/05/01 13:56:36;;;;;;;48.97;34.13;;;;;;;;;;5093002;28;20235;-67
2023/05/01 13:59:04;;;;;;;83.43;67.13;;;;;;;;;;5091361;28;20024;-69
2023/05/01 14:01:30;;;;;;;58.90;45.70;;;;;;;;;;5093409;28;20032;-69
2023/05/01 14:03:59;;;;;;;62.70;47.15;;;;;;;;;;5093140;28;20081;-68
2023/05/01 14:06:27;;;;;;;59.45;40.55;;;;;;;;;;5093180;28;20086;-69
2023/05/01 14:08:58;;;;;;;62.13;42.20;;;;;;;;;;5091576;28;20040;-69
2023/05/01 14:11:25;;;;;;;84.32;66.63;;;;;;;;;;5091859;28;20484;-69
2023/05/01 14:13:53;;;;;;;56.28;38.20;;;;;;;;;;5092964;28;20028;-69
2023/05/01 14:16:23;;;;;;;66.72;48.83;;;;;;;;;;5092722;28;20016;-70
2023/05/01 14:18:53;;;;;;;60.75;38.28;;;;;;;;;;5090863;28;20059;-69
2023/05/01 14:21:21;;;;;;;46.83;31.95;;;;;;;;;;5092487;28;20031;-71
2023/05/01 14:23:47;;;;;;;51.55;32.42;;;;;;;;;;5092414;28;20023;-69
2023/05/01 14:26:17;;;;;;;49.30;33.05;;;;;;;;;;5091065;28;20095;-69
2023/05/01 14:28:44;;;;;;;52.20;33.45;;;;;;;;;;5091562;28;20416;-71
2023/05/01 14:31:30;;;;;;;52.67;35.53;;;;;;;;;;5090938;28;20031;-69